Погода Начерезийна 2 недели

Республика Адыгея, Россия

15 - 28 июля
  • 15июля
    Сегодня
    +23°
    +36°
    Облачно с прояснениями
    ВремяПогодаТемператураВлажностьДавлениеВетер, м/сВероятность осадков
    00:00Практически безоблачно+24°C21 %751 мм5.0 м/с2 %
    03:00Небольшая облачность+21°C27 %751 мм4.5 м/с2 %
    06:00Облачно с прояснениями+21°C33 %752 мм4.3 м/с2 %
    09:00Облачно с прояснениями+28°C33 %752 мм5.4 м/с2 %
    12:00Облачно с прояснениями+33°C25 %752 мм7.5 м/с2 %
    15:00Облачно с прояснениями+35°C24 %751 мм7.3 м/с2 %
    18:00Облачно с прояснениями+35°C26 %751 мм5.8 м/с2 %
    21:00Небольшая облачность+30°C29 %751 мм4.6 м/с2 %
  • 16июля
    Вторник
    +25°
    +38°
    Облачно с прояснениями
    ВремяПогодаТемператураВлажностьДавлениеВетер, м/сВероятность осадков
    00:00Практически безоблачно+27°C32 %751 мм4.2 м/с2 %
    03:00Небольшая облачность+24°C39 %751 мм3.7 м/с2 %
    06:00Облачно с прояснениями+24°C47 %752 мм2.9 м/с2 %
    09:00Облачно с прояснениями+31°C36 %752 мм3.9 м/с2 %
    12:00Практически безоблачно+36°C23 %752 мм6.2 м/с2 %
    15:00Облачно с прояснениями+38°C21 %751 мм6.2 м/с2 %
    18:00Небольшая облачность+37°C23 %750 мм5.5 м/с2 %
    21:00Небольшая облачность+31°C27 %751 мм3.2 м/с2 %
  • 17июля
    Среда
    +25°
    +39°
    Практически безоблачно
    ВремяПогодаТемператураВлажностьДавлениеВетер, м/сВероятность осадков
    00:00Ясно и безоблачно+28°C29 %751 мм3.6 м/с2 %
    03:00Небольшая облачность+26°C34 %751 мм3.7 м/с2 %
    06:00Облачно с прояснениями+26°C43 %752 мм3.4 м/с2 %
    09:00Практически безоблачно+32°C34 %753 мм4.6 м/с2 %
    12:00Практически безоблачно+37°C23 %752 мм7.0 м/с2 %
    15:00Практически безоблачно+38°C20 %752 мм7.5 м/с2 %
    18:00Ясно и безоблачно+38°C22 %751 мм6.2 м/с2 %
    21:00Ясно и безоблачно+32°C25 %752 мм4.9 м/с2 %
  • 18июля
    Четверг
    +24°
    +39°
    Ясно и безоблачно
    ВремяПогодаТемператураВлажностьДавлениеВетер, м/сВероятность осадков
    00:00Ясно и безоблачно+30°C26 %752 мм5.5 м/с2 %
    03:00Ясно и безоблачно+27°C28 %752 мм4.5 м/с2 %
    06:00Ясно и безоблачно+26°C32 %753 мм3.8 м/с2 %
    09:00Ясно и безоблачно+33°C29 %753 мм5.6 м/с2 %
    12:00Ясно и безоблачно+37°C22 %753 мм7.2 м/с2 %
    15:00Ясно и безоблачно+38°C19 %752 мм6.6 м/с2 %
    18:00Ясно и безоблачно+37°C22 %751 мм5.2 м/с2 %
    21:00Ясно и безоблачно+31°C25 %752 мм3.3 м/с2 %
  • 19июля
    Пятница
    +24°
    +39°
    Ясно и безоблачно
    ВремяПогодаТемператураВлажностьДавлениеВетер, м/сВероятность осадков
    00:00Ясно и безоблачно+28°C27 %752 мм2.9 м/с2 %
    03:00Ясно и безоблачно+24°C33 %751 мм1.9 м/с2 %
    06:00Ясно и безоблачно+25°C49 %751 мм2.4 м/с2 %
    09:00Ясно и безоблачно+32°C29 %752 мм2.8 м/с2 %
    12:00Ясно и безоблачно+37°C19 %751 мм5.1 м/с2 %
    15:00Ясно и безоблачно+39°C18 %750 мм5.1 м/с2 %
    18:00Ясно и безоблачно+38°C19 %749 мм2.9 м/с3 %
    21:00Ясно и безоблачно+31°C34 %750 мм3.0 м/с2 %
Мы используем cookies
Соглашаюсь